Terminal Aerodrome Forecast
Issued by NWS Quad Cities IA IL

Home | Current Version | Previous Version | Text Only | Print | Product List | Glossary On
Versions: 1 2 3 4 5 6 7 8 9 10 11 12 13 14 15 16 17 18 19 20 21 22 23
454
FTUS43 KDVN 240704 AAA
TAFDBQ
TAF AMD
KDBQ 240704Z 2407/2506 36006KT 5SM BR SCT250
     FM241000 04006KT 4SM BR BKN250
     FM241400 08008KT P6SM OVC012
     FM242000 10011KT 3SM -RA BR OVC007=

USA.gov is the U.S. government's official web portal to all federal, state and local government web resources and services.